Airfield :







YOU CAN JOIN US ON...

 
LOGIN :

Register | Disclaimer

   EN    FR    IT 

 









Legend :    VFR   Marginal VFR   IFR   Intensive IFR   Very Intensive IFR
Visi :
Ceiling :
>= 8 km
>= 3000ft
5 to 8 km
1000 to 3000 ft
1500m to 5 km
500 to 1000 ft
800 to 1500m
200 to 500 ft
< 800m
< 200 ft
Symbols :   Thunderstorms  Fog  Heavy snow  Heavy precipitations  Wind > 20 kt






- Airport Elevation : 129 ft
- IATA code : YVP


CYVP - Kuujjuak

CURRENT METAR :
  • 150700Z 06008KT 15SM IC FEW035 BKN080 M22/M25 A2990 RMK SC1AC6 SLP134

EXPIRED METARs :
  • 150600Z 03006KT 15SM IC FEW035 M25/M27 A2993 RMK SC2 SLP142
  • 150500Z 04007KT 15SM IC SKC M25/M28 A2997 RMK PRESFR SLP157
  • 150400Z 01003KT 320V060 15SM IC SKC M28/M31 A3001 RMK SLP171

TAF TAF CYVP
Valid from the 15 at 06:00 until the 15 at 18:00 UTC


150539Z 1506/1518 04007KT P6SM BKN030
TEMPO 1506/1509 5SM -SN IC BKN020
FM150900 04008KT 11/2SM -SN OVC006
TEMPO 1509/1512 4SM -SN OVC015
BECMG 1510/1512 04012G22KT
FM151200 04012KT 21/2SM -SN OVC008
TEMPO 1512/1514 6SM -SN OVC015
PROB30 1512/1514 11/2SM -SN
FM151400 04012G22KT 1SM -SN VV008
TEMPO 1514/1518 21/2SM -SN OVC015 RMK NXT FCST BY 151200Z



MET'MAP, your aeronautical weather chart ! - Copyright ORBIFLY December 2007 - Disclaimer

ORBIFLY MET'MAP TEAM :

Programming & Development : Alexandra Zaïnal
Concept & original design : Baudouin d'Aumeries
Assistance for programming : Marc-Olivier Méhu
Technical & hardware support : Manuel Goepfert

Contact : metmap@orbifly.com




SOURCES & CREDITS :

   NOAA